Time;durP1;ratioP1;P1;durP2;ratioP2;P2;SDS_P1;SDS_P2;PMS_P1;PMS_P2;Temp;Humidity;BMP_temperature;BMP_pressure;BME280_temperature;BME280_humidity;BME280_pressure;Samples;Min_cycle;Max_cycle;Signal;HPM_P1;HPM_P2
2021/03/30 00:01:46;;;;;;;7.53;4.28;;;13.80;48.10;;;;;;5015531;28;20025;-94
2021/03/30 00:04:12;;;;;;;6.60;4.45;;;13.80;48.10;;;;;;5000649;28;20030;-94
2021/03/30 00:06:37;;;;;;;7.72;5.10;;;13.70;48.10;;;;;;5011814;28;20084;-94
2021/03/30 00:09:03;;;;;;;6.38;3.45;;;13.70;48.30;;;;;;5015318;28;20501;-94
2021/03/30 00:11:29;;;;;;;7.10;4.78;;;13.70;48.30;;;;;;5016760;28;20076;-95
2021/03/30 00:13:55;;;;;;;8.70;4.68;;;13.70;48.40;;;;;;5014877;28;20481;-92
2021/03/30 00:16:21;;;;;;;8.32;4.80;;;13.70;48.60;;;;;;5013287;28;20113;-92
2021/03/30 00:18:46;;;;;;;7.55;4.82;;;13.70;48.70;;;;;;5023804;28;20030;-94
2021/03/30 00:21:12;;;;;;;7.55;4.35;;;13.70;48.70;;;;;;5018302;28;20022;-92
2021/03/30 00:23:38;;;;;;;9.40;5.75;;;13.70;48.90;;;;;;5015409;28;20026;-93
2021/03/30 00:26:04;;;;;;;10.27;6.90;;;13.70;49.10;;;;;;5015652;28;20056;-94
2021/03/30 00:28:29;;;;;;;11.23;6.75;;;13.70;49.30;;;;;;5014816;28;20061;-94
2021/03/30 00:30:55;;;;;;;10.70;6.97;;;13.60;49.50;;;;;;5015455;28;20037;-95
2021/03/30 00:33:21;;;;;;;8.10;4.90;;;13.60;49.60;;;;;;5014352;28;20110;-92
2021/03/30 00:35:46;;;;;;;8.10;5.28;;;13.60;49.60;;;;;;5015405;28;20026;-92
2021/03/30 00:38:12;;;;;;;8.10;5.35;;;13.60;49.70;;;;;;5034464;28;20021;-91
2021/03/30 00:40:38;;;;;;;6.95;4.30;;;13.60;49.60;;;;;;5029469;28;20084;-92
2021/03/30 00:43:05;;;;;;;9.05;5.40;;;13.60;49.70;;;;;;5024905;28;20052;-91
2021/03/30 00:45:31;;;;;;;9.65;5.68;;;13.60;49.80;;;;;;5016176;28;20027;-89
2021/03/30 00:47:57;;;;;;;7.05;4.43;;;13.50;49.90;;;;;;5031137;28;20083;-91
2021/03/30 00:50:26;;;;;;;9.88;5.80;;;13.50;49.90;;;;;;5028540;28;20018;-91
2021/03/30 00:52:52;;;;;;;7.88;5.35;;;13.50;50.10;;;;;;5013101;28;20029;-91
2021/03/30 00:55:17;;;;;;;11.25;6.65;;;13.50;50.20;;;;;;5013214;28;20018;-91
2021/03/30 00:57:44;;;;;;;11.63;7.32;;;13.40;50.30;;;;;;5012677;28;20029;-90
2021/03/30 01:00:11;;;;;;;8.50;5.75;;;13.40;50.60;;;;;;5003631;28;20025;-90
2021/03/30 01:02:38;;;;;;;8.20;5.53;;;13.30;50.60;;;;;;5012438;28;20036;-92
2021/03/30 01:05:10;;;;;;;9.02;4.68;;;13.30;50.60;;;;;;5013243;28;20018;-92
2021/03/30 01:07:36;;;;;;;7.40;5.10;;;13.20;50.80;;;;;;5012970;28;20030;-92
2021/03/30 01:10:26;;;;;;;8.23;5.45;;;13.20;50.90;;;;;;5013427;28;20014;-91
2021/03/30 01:13:03;;;;;;;8.73;5.95;;;13.20;51.00;;;;;;5014111;28;20025;-92
2021/03/30 01:15:50;;;;;;;8.75;4.97;;;13.10;51.30;;;;;;5014066;28;20214;-91
2021/03/30 01:18:32;;;;;;;8.18;5.22;;;13.10;51.40;;;;;;5013802;28;20022;-91
2021/03/30 01:21:04;;;;;;;8.30;4.78;;;13.00;51.40;;;;;;5012588;28;20117;-92
2021/03/30 01:24:07;;;;;;;7.78;5.03;;;13.00;51.30;;;;;;5014617;28;20581;-90
2021/03/30 01:26:39;;;;;;;8.95;6.13;;;13.00;51.40;;;;;;5011944;28;20445;-91
2021/03/30 01:29:12;;;;;;;9.38;5.45;;;13.00;51.50;;;;;;5012255;28;20037;-91
2021/03/30 01:31:43;;;;;;;7.47;5.10;;;12.90;51.50;;;;;;5011639;28;20579;-92
2021/03/30 01:34:13;;;;;;;10.07;5.90;;;12.90;51.50;;;;;;5013369;28;20022;-91
2021/03/30 01:36:42;;;;;;;7.85;5.38;;;12.80;51.60;;;;;;5013016;28;20021;-90
2021/03/30 01:39:11;;;;;;;7.93;5.35;;;12.80;51.80;;;;;;5013293;28;20026;-92
2021/03/30 01:41:44;;;;;;;8.95;5.68;;;12.70;51.80;;;;;;5012421;28;20125;-92
2021/03/30 01:44:12;;;;;;;9.18;5.07;;;12.70;52.00;;;;;;5013700;28;20384;-91
2021/03/30 01:46:40;;;;;;;11.82;5.75;;;12.60;52.10;;;;;;5013385;28;20026;-91
2021/03/30 01:49:07;;;;;;;10.20;6.60;;;12.60;52.10;;;;;;5024621;28;20117;-92
2021/03/30 01:51:33;;;;;;;9.85;5.85;;;12.60;52.30;;;;;;5028327;28;20024;-91
2021/03/30 01:54:00;;;;;;;8.75;5.85;;;12.50;52.30;;;;;;5013497;28;20026;-93
2021/03/30 01:56:29;;;;;;;8.27;5.13;;;12.50;52.20;;;;;;5013575;28;20119;-93
2021/03/30 01:58:57;;;;;;;9.00;5.40;;;12.50;52.30;;;;;;5013295;28;20030;-92
2021/03/30 02:01:23;;;;;;;10.65;6.93;;;12.50;52.40;;;;;;5013683;28;20018;-91
2021/03/30 02:03:50;;;;;;;11.35;7.38;;;12.40;52.40;;;;;;5013922;28;20112;-92
2021/03/30 02:06:16;;;;;;;12.27;7.10;;;12.40;52.50;;;;;;5024325;28;20027;-92
2021/03/30 02:08:43;;;;;;;11.27;6.40;;;12.30;52.60;;;;;;5015197;28;20049;-91
2021/03/30 02:11:09;;;;;;;10.25;5.90;;;12.30;52.70;;;;;;5013296;28;20021;-95
2021/03/30 02:16:08;;;;;;;8.10;5.43;;;12.30;52.80;;;;;;5013124;28;20037;-93
2021/03/30 02:18:45;;;;;;;8.60;5.68;;;12.20;53.00;;;;;;5012727;28;20519;-92
2021/03/30 02:21:18;;;;;;;9.25;5.43;;;12.10;53.20;;;;;;5013181;28;20065;-93
2021/03/30 02:23:45;;;;;;;7.80;4.97;;;12.00;53.30;;;;;;5013667;28;20064;-93
2021/03/30 02:26:16;;;;;;;7.50;5.32;;;12.00;53.40;;;;;;5012097;28;20507;-93
2021/03/30 02:28:51;;;;;;;8.60;5.47;;;12.00;53.50;;;;;;5011903;28;20038;-93
2021/03/30 02:31:21;;;;;;;10.23;5.93;;;11.90;53.50;;;;;;5012604;28;20026;-91
2021/03/30 02:33:49;;;;;;;7.72;4.75;;;11.90;53.60;;;;;;5013002;28;20049;-92
2021/03/30 02:36:17;;;;;;;9.13;5.63;;;11.90;53.80;;;;;;5012938;28;20076;-91
2021/03/30 02:38:44;;;;;;;10.07;6.38;;;11.80;54.00;;;;;;5011979;28;20026;-92
2021/03/30 02:41:10;;;;;;;10.15;5.93;;;11.80;54.20;;;;;;5012471;28;20086;-92
2021/03/30 02:43:36;;;;;;;9.80;5.50;;;11.80;54.20;;;;;;5012534;28;20109;-91
2021/03/30 02:46:03;;;;;;;8.98;5.53;;;11.70;54.20;;;;;;5012795;28;20030;-93
2021/03/30 02:48:33;;;;;;;8.30;5.45;;;11.70;54.40;;;;;;5011507;28;20133;-92
2021/03/30 02:50:59;;;;;;;9.82;5.75;;;11.70;54.40;;;;;;5012834;28;20029;-92
2021/03/30 02:53:25;;;;;;;9.45;6.07;;;11.60;54.40;;;;;;5011468;28;20469;-93
2021/03/30 02:55:51;;;;;;;9.73;6.55;;;11.50;54.50;;;;;;5012454;28;20034;-92
2021/03/30 02:58:19;;;;;;;11.38;6.43;;;11.50;54.70;;;;;;5012262;28;20483;-92
2021/03/30 03:00:45;;;;;;;8.60;5.70;;;11.50;54.90;;;;;;5011558;28;20033;-92
2021/03/30 03:03:13;;;;;;;11.32;5.82;;;11.50;54.90;;;;;;5011662;28;20500;-91
2021/03/30 03:05:38;;;;;;;9.07;5.78;;;11.40;55.00;;;;;;5012039;28;20037;-92
2021/03/30 03:08:05;;;;;;;9.02;5.63;;;11.40;55.00;;;;;;5012313;28;20034;-92
2021/03/30 03:10:32;;;;;;;8.38;5.55;;;11.40;55.10;;;;;;5011306;28;20424;-90
2021/03/30 03:12:59;;;;;;;10.73;6.55;;;11.40;55.10;;;;;;5018283;28;20026;-92
2021/03/30 03:15:25;;;;;;;10.07;6.40;;;11.40;55.20;;;;;;5012182;28;20014;-90
2021/03/30 03:17:52;;;;;;;9.05;6.00;;;11.30;55.20;;;;;;5011685;28;20033;-90
2021/03/30 03:20:18;;;;;;;9.80;6.40;;;11.30;55.40;;;;;;5030346;28;20376;-89
2021/03/30 03:22:45;;;;;;;11.18;6.03;;;11.30;55.50;;;;;;5018410;28;20388;-90
2021/03/30 03:25:13;;;;;;;9.07;5.60;;;11.20;55.50;;;;;;4992793;28;20019;-92
2021/03/30 03:27:39;;;;;;;10.80;6.20;;;11.20;55.60;;;;;;4992756;28;20042;-90
2021/03/30 03:30:09;;;;;;;8.50;5.60;;;11.20;55.60;;;;;;5011671;28;20068;-92
2021/03/30 03:32:35;;;;;;;10.73;6.50;;;11.20;55.70;;;;;;5010524;28;20084;-92
2021/03/30 03:35:01;;;;;;;9.45;6.35;;;11.10;55.80;;;;;;5012016;28;20041;-91
2021/03/30 03:37:27;;;;;;;8.95;6.22;;;11.10;56.00;;;;;;5014724;28;20022;-92
2021/03/30 03:39:53;;;;;;;11.85;5.90;;;11.10;56.10;;;;;;5010658;28;20037;-90
2021/03/30 03:42:18;;;;;;;11.00;6.93;;;11.00;56.10;;;;;;5011281;28;20072;-92
2021/03/30 03:44:45;;;;;;;11.05;6.65;;;11.00;56.30;;;;;;5012004;28;20085;-91
2021/03/30 03:47:11;;;;;;;11.02;5.88;;;10.90;56.40;;;;;;5012922;28;20030;-93
2021/03/30 03:49:36;;;;;;;11.10;6.63;;;10.90;56.40;;;;;;5012356;28;20495;-92
2021/03/30 03:52:12;;;;;;;9.63;6.55;;;10.90;56.60;;;;;;5033920;28;20068;-92
2021/03/30 03:54:40;;;;;;;11.75;7.07;;;10.90;56.60;;;;;;5017772;28;20021;-94
2021/03/30 03:57:13;;;;;;;10.73;6.70;;;10.90;56.70;;;;;;5024876;28;20025;-95
2021/03/30 03:59:40;;;;;;;9.95;6.53;;;10.80;56.80;;;;;;5022798;28;20029;-96
2021/03/30 04:02:45;;;;;;;9.35;6.22;;;10.80;56.90;;;;;;5018874;28;20018;-96
2021/03/30 04:05:21;;;;;;;10.07;6.45;;;10.70;57.00;;;;;;4959472;28;20083;-96
2021/03/30 04:08:12;;;;;;;11.38;6.90;;;10.70;57.00;;;;;;5008330;28;20085;-96
2021/03/30 04:10:41;;;;;;;12.30;6.45;;;10.70;57.50;;;;;;5014539;28;20369;-96
2021/03/30 04:13:07;;;;;;;12.68;6.90;;;10.60;57.10;;;;;;5015413;28;20022;-96
2021/03/30 04:15:33;;;;;;;10.18;6.50;;;10.60;57.20;;;;;;5016167;28;20030;-96
2021/03/30 04:17:59;;;;;;;11.20;6.13;;;10.60;57.40;;;;;;5015902;28;20026;-94
2021/03/30 04:20:25;;;;;;;12.88;7.50;;;10.60;57.50;;;;;;5014607;28;20388;-93
2021/03/30 04:22:59;;;;;;;12.05;7.22;;;10.60;57.70;;;;;;5015633;28;20021;-92
2021/03/30 04:25:25;;;;;;;9.73;6.07;;;10.50;57.70;;;;;;5014221;28;20548;-92
2021/03/30 04:27:51;;;;;;;9.95;5.95;;;10.60;57.70;;;;;;5013331;28;20030;-91
2021/03/30 04:30:17;;;;;;;12.50;7.53;;;10.50;57.60;;;;;;5012918;28;20017;-92
2021/03/30 04:32:43;;;;;;;10.23;6.05;;;10.50;57.70;;;;;;5003487;28;20034;-91
2021/03/30 04:35:10;;;;;;;13.77;8.48;;;10.50;57.80;;;;;;5009225;28;20049;-90
2021/03/30 04:37:36;;;;;;;11.13;6.80;;;10.50;58.10;;;;;;5009999;28;20022;-91
2021/03/30 04:40:04;;;;;;;11.52;7.05;;;10.50;58.00;;;;;;5003097;28;20048;-90
2021/03/30 04:42:29;;;;;;;10.68;6.60;;;10.40;58.00;;;;;;5002709;28;20029;-89
2021/03/30 04:44:55;;;;;;;10.15;6.22;;;10.50;58.10;;;;;;5009363;28;20030;-90
2021/03/30 04:47:21;;;;;;;9.55;6.13;;;10.40;58.10;;;;;;5013116;28;20037;-89
2021/03/30 04:49:47;;;;;;;11.32;6.63;;;10.40;58.10;;;;;;5013156;28;20079;-90
2021/03/30 04:52:13;;;;;;;10.68;6.68;;;10.40;58.20;;;;;;5011858;28;20085;-92
2021/03/30 04:54:39;;;;;;;11.52;6.82;;;10.40;58.20;;;;;;5013677;28;20022;-94
2021/03/30 04:57:05;;;;;;;10.07;6.70;;;10.40;58.20;;;;;;5015461;28;20033;-94
2021/03/30 04:59:30;;;;;;;12.60;6.97;;;10.40;58.30;;;;;;5013130;28;20029;-93
2021/03/30 05:01:56;;;;;;;12.35;7.10;;;10.40;58.30;;;;;;5014791;28;20109;-93
2021/03/30 05:04:22;;;;;;;11.65;7.05;;;10.30;58.40;;;;;;5017092;28;20114;-92
2021/03/30 05:06:47;;;;;;;12.10;6.82;;;10.30;58.50;;;;;;5010036;28;20032;-92
2021/03/30 05:09:13;;;;;;;11.07;6.65;;;10.20;58.60;;;;;;5014017;28;20573;-95
2021/03/30 05:11:38;;;;;;;11.10;6.95;;;10.20;58.70;;;;;;5014011;28;20026;-95
2021/03/30 05:14:04;;;;;;;10.38;6.47;;;10.10;58.80;;;;;;5016808;28;20042;-95
2021/03/30 05:16:30;;;;;;;11.50;7.00;;;10.10;58.80;;;;;;5010365;28;20513;-95
2021/03/30 05:18:56;;;;;;;11.30;7.18;;;10.10;58.80;;;;;;5011494;28;20029;-96
2021/03/30 05:21:22;;;;;;;12.43;6.72;;;10.10;58.80;;;;;;5014979;28;20030;-91
2021/03/30 05:23:47;;;;;;;13.90;7.43;;;10.10;58.80;;;;;;5001170;28;20030;-89
2021/03/30 05:26:13;;;;;;;11.65;6.70;;;10.10;58.80;;;;;;5012097;28;20504;-91
2021/03/30 05:28:39;;;;;;;11.90;6.57;;;10.10;58.80;;;;;;5018524;28;20049;-90
2021/03/30 05:31:06;;;;;;;11.85;6.82;;;10.10;58.80;;;;;;5013589;28;20054;-91
2021/03/30 05:33:31;;;;;;;11.23;7.00;;;10.10;58.90;;;;;;5014874;28;20113;-91
2021/03/30 05:35:57;;;;;;;13.15;6.75;;;10.00;58.90;;;;;;5029143;28;20100;-91
2021/03/30 05:38:23;;;;;;;10.80;6.95;;;10.00;58.90;;;;;;5032771;28;20033;-91
2021/03/30 05:40:49;;;;;;;12.35;7.07;;;10.00;59.10;;;;;;5018064;28;20033;-90
2021/03/30 05:43:15;;;;;;;10.93;6.65;;;10.00;59.20;;;;;;5015238;28;20021;-94
2021/03/30 05:45:41;;;;;;;10.80;6.60;;;10.00;59.20;;;;;;5007366;28;20033;-87
2021/03/30 05:48:11;;;;;;;11.43;7.38;;;10.00;59.20;;;;;;5007694;28;20548;-89
2021/03/30 05:50:36;;;;;;;12.35;7.47;;;10.10;59.10;;;;;;5008645;28;20030;-95
2021/03/30 05:53:14;;;;;;;11.93;7.43;;;10.40;58.90;;;;;;5008116;28;20025;-88
2021/03/30 05:55:43;;;;;;;11.32;7.15;;;10.80;58.60;;;;;;5008689;28;20027;-89
2021/03/30 05:58:09;;;;;;;15.45;7.68;;;11.70;57.40;;;;;;5005643;28;20520;-93
2021/03/30 06:00:36;;;;;;;14.45;8.80;;;13.10;54.80;;;;;;5008932;28;20022;-90
2021/03/30 06:03:08;;;;;;;15.63;9.25;;;14.30;52.50;;;;;;5010271;28;20025;-89
2021/03/30 06:05:34;;;;;;;11.97;7.50;;;15.40;50.30;;;;;;5005486;28;20112;-90
2021/03/30 06:08:01;;;;;;;14.98;9.25;;;16.40;48.70;;;;;;5003991;28;20053;-88
2021/03/30 06:10:29;;;;;;;17.95;10.77;;;17.10;47.20;;;;;;5010102;28;20026;-91
2021/03/30 06:12:56;;;;;;;14.32;8.35;;;17.80;45.70;;;;;;5009246;28;20033;-90
2021/03/30 06:15:31;;;;;;;17.98;9.85;;;18.40;45.00;;;;;;5008557;28;20056;-94
2021/03/30 06:17:57;;;;;;;16.98;10.15;;;19.20;43.80;;;;;;5013641;28;20025;-94
2021/03/30 06:20:28;;;;;;;16.85;10.15;;;19.70;42.60;;;;;;5007531;28;20022;-94
2021/03/30 06:22:59;;;;;;;15.52;8.43;;;20.30;42.00;;;;;;5010135;28;20041;-94
2021/03/30 06:25:38;;;;;;;15.85;9.40;;;20.90;41.40;;;;;;5010458;28;20018;-88
2021/03/30 06:28:20;;;;;;;16.10;9.65;;;21.40;40.60;;;;;;4999471;28;20049;-90
2021/03/30 06:31:03;;;;;;;17.77;10.80;;;22.10;39.70;;;;;;5004857;28;20041;-89
2021/03/30 06:33:43;;;;;;;18.25;10.50;;;22.40;38.60;;;;;;4995154;28;20029;-90
2021/03/30 06:36:22;;;;;;;17.88;11.10;;;22.80;38.20;;;;;;5026232;28;20021;-89
2021/03/30 06:39:05;;;;;;;14.40;9.15;;;22.90;37.40;;;;;;4991145;28;20021;-90
2021/03/30 06:41:54;;;;;;;14.25;9.18;;;23.00;37.00;;;;;;5001379;28;20121;-90
2021/03/30 06:44:28;;;;;;;14.98;9.30;;;23.10;37.10;;;;;;5003311;28;20025;-90
2021/03/30 06:46:57;;;;;;;14.75;9.65;;;23.10;36.90;;;;;;5018439;28;20535;-91
2021/03/30 06:49:24;;;;;;;20.73;15.15;;;23.10;36.80;;;;;;5010923;28;20030;-88
2021/03/30 06:51:50;;;;;;;15.73;10.63;;;22.60;37.30;;;;;;5011520;28;20121;-89
2021/03/30 06:54:16;;;;;;;15.57;9.55;;;21.50;39.40;;;;;;5011449;28;20125;-88
2021/03/30 06:56:57;;;;;;;12.88;8.38;;;20.80;40.20;;;;;;5014160;28;20117;-89
2021/03/30 06:59:24;;;;;;;16.13;10.40;;;20.20;41.10;;;;;;5000074;28;20212;-89
2021/03/30 07:01:52;;;;;;;17.45;11.40;;;19.70;42.00;;;;;;5008363;28;20096;-88
2021/03/30 07:04:18;;;;;;;20.55;12.15;;;19.20;42.20;;;;;;5007876;28;20033;-85
2021/03/30 07:06:52;;;;;;;18.48;11.40;;;18.90;42.60;;;;;;4998960;28;20026;-86
2021/03/30 07:09:19;;;;;;;19.25;11.73;;;18.50;42.90;;;;;;5003912;28;20059;-84
2021/03/30 07:11:45;;;;;;;18.40;10.98;;;18.40;43.10;;;;;;5005615;28;20018;-84
2021/03/30 07:14:11;;;;;;;16.92;10.75;;;18.10;43.30;;;;;;5009332;28;20044;-85
2021/03/30 07:16:56;;;;;;;20.30;11.23;;;17.80;43.80;;;;;;5000574;28;20026;-84
2021/03/30 07:19:25;;;;;;;20.95;12.40;;;17.60;44.70;;;;;;4998033;28;20141;-86
2021/03/30 07:22:05;;;;;;;20.25;11.88;;;17.30;44.20;;;;;;5005420;28;20061;-84
2021/03/30 07:24:49;;;;;;;20.10;12.05;;;17.10;44.70;;;;;;5004773;28;20062;-85
2021/03/30 07:27:23;;;;;;;19.20;10.88;;;16.90;44.80;;;;;;5007372;28;20038;-85
2021/03/30 07:29:50;;;;;;;18.38;11.55;;;16.70;45.10;;;;;;5004595;28;20077;-84
2021/03/30 07:32:43;;;;;;;21.98;11.80;;;16.60;45.40;;;;;;5015173;28;20393;-84
2021/03/30 07:35:12;;;;;;;16.00;9.93;;;16.50;45.60;;;;;;5021123;28;20056;-85
2021/03/30 07:38:08;;;;;;;16.73;9.95;;;16.40;45.70;;;;;;5013884;28;20029;-84
2021/03/30 07:40:39;;;;;;;18.30;11.32;;;16.50;45.90;;;;;;5005157;28;20584;-83
2021/03/30 07:43:07;;;;;;;19.20;11.60;;;16.20;45.90;;;;;;5008244;28;20101;-84
2021/03/30 07:45:36;;;;;;;17.15;11.00;;;16.10;46.20;;;;;;5007558;28;20025;-83
2021/03/30 07:48:03;;;;;;;17.55;10.32;;;16.10;46.40;;;;;;5008125;28;20045;-84
2021/03/30 07:50:53;;;;;;;20.08;11.98;;;16.00;46.60;;;;;;5002619;28;20034;-84
2021/03/30 07:53:43;;;;;;;19.83;11.23;;;16.00;46.90;;;;;;5008945;28;20038;-83
2021/03/30 07:56:13;;;;;;;17.67;10.52;;;15.90;46.80;;;;;;5005424;28;20026;-83
2021/03/30 07:58:44;;;;;;;20.60;11.95;;;15.90;46.80;;;;;;5003660;28;20018;-83
2021/03/30 08:01:12;;;;;;;20.33;12.32;;;15.90;46.90;;;;;;5005728;28;20030;-84
2021/03/30 08:03:41;;;;;;;17.88;10.88;;;15.80;47.00;;;;;;5008271;28;20070;-84
2021/03/30 08:06:21;;;;;;;18.95;10.73;;;15.80;47.20;;;;;;5005868;28;20030;-84
2021/03/30 08:08:58;;;;;;;25.75;12.85;;;16.00;47.30;;;;;;5004881;28;20505;-84
2021/03/30 08:11:52;;;;;;;22.10;12.05;;;16.10;47.20;;;;;;5004716;28;20033;-85
2021/03/30 08:14:23;;;;;;;16.10;9.30;;;16.10;47.10;;;;;;5007020;28;20030;-84
2021/03/30 08:16:52;;;;;;;17.55;10.20;;;16.20;47.20;;;;;;5008825;28;20036;-86
2021/03/30 08:19:18;;;;;;;16.27;9.68;;;16.30;47.00;;;;;;4999586;28;20145;-86
2021/03/30 08:21:58;;;;;;;11.35;7.53;;;16.40;46.90;;;;;;5009167;28;20113;-85
2021/03/30 08:24:47;;;;;;;14.82;8.15;;;16.50;46.70;;;;;;5003761;28;20034;-84
2021/03/30 08:27:32;;;;;;;14.20;8.57;;;16.70;46.40;;;;;;5007072;28;20036;-84
2021/03/30 08:30:00;;;;;;;14.13;9.30;;;16.80;46.40;;;;;;5006074;28;20030;-87
2021/03/30 08:32:31;;;;;;;14.23;7.97;;;16.90;46.30;;;;;;5007579;28;20026;-84
2021/03/30 08:34:57;;;;;;;17.52;10.98;;;17.00;46.40;;;;;;5004826;28;20116;-85
2021/03/30 08:37:23;;;;;;;12.90;8.02;;;17.10;46.10;;;;;;5003197;28;20682;-85
2021/03/30 08:39:49;;;;;;;20.73;12.50;;;17.10;46.10;;;;;;5005837;28;20026;-87
2021/03/30 08:42:19;;;;;;;17.67;10.77;;;17.10;46.00;;;;;;5008277;28;20022;-84
2021/03/30 08:44:58;;;;;;;17.70;11.15;;;17.00;46.10;;;;;;5005756;28;20022;-85
2021/03/30 08:47:26;;;;;;;17.80;11.40;;;17.10;46.40;;;;;;5007964;28;20042;-84
2021/03/30 08:50:09;;;;;;;15.75;10.27;;;17.10;46.10;;;;;;5009031;28;20056;-83
2021/03/30 08:52:35;;;;;;;;;;;17.00;46.10;;;;;;5008021;28;20025;-84
2021/03/30 08:55:06;;;;;;;13.80;7.80;;;17.10;46.10;;;;;;5008156;28;19963;-86
2021/03/30 08:57:35;;;;;;;14.63;8.77;;;17.20;46.10;;;;;;5007947;28;20022;-86
2021/03/30 09:00:05;;;;;;;13.13;7.82;;;17.20;46.00;;;;;;5006437;28;20030;-85
2021/03/30 09:02:30;;;;;;;17.70;10.32;;;17.20;45.90;;;;;;5009228;28;20022;-85
2021/03/30 09:04:57;;;;;;;18.75;10.77;;;17.20;45.80;;;;;;5007168;28;20035;-86
2021/03/30 09:07:23;;;;;;;17.08;10.98;;;17.20;46.00;;;;;;5004503;28;20080;-86
2021/03/30 09:09:49;;;;;;;21.77;11.88;;;17.20;46.20;;;;;;5008799;28;20026;-84
2021/03/30 09:12:17;;;;;;;12.57;7.97;;;17.20;46.20;;;;;;5005357;28;20040;-85
2021/03/30 09:14:44;;;;;;;15.55;10.38;;;17.10;46.40;;;;;;5014587;28;20052;-85
2021/03/30 09:17:12;;;;;;;15.48;10.40;;;17.20;46.40;;;;;;5025486;28;20431;-84
2021/03/30 09:19:47;;;;;;;13.50;7.68;;;17.20;46.30;;;;;;5017170;28;20018;-85
2021/03/30 09:24:59;;;;;;;17.08;10.55;;;17.40;46.30;;;;;;5012407;28;20060;-85
2021/03/30 09:27:32;;;;;;;16.83;10.10;;;17.50;45.80;;;;;;5006672;28;20148;-85
2021/03/30 09:30:00;;;;;;;15.32;9.18;;;17.70;46.00;;;;;;5006190;28;20169;-84
2021/03/30 09:32:29;;;;;;;17.73;10.18;;;17.80;45.90;;;;;;5004122;28;20114;-84
2021/03/30 09:35:16;;;;;;;18.10;10.95;;;17.90;45.80;;;;;;5007611;28;20557;-85
2021/03/30 09:37:51;;;;;;;16.65;10.18;;;17.90;44.90;;;;;;5004799;28;20049;-84
2021/03/30 09:40:24;;;;;;;15.15;8.35;;;17.80;44.70;;;;;;5014198;28;20030;-85
2021/03/30 09:42:50;;;;;;;20.80;11.73;;;17.90;44.50;;;;;;5011717;28;20041;-84
2021/03/30 09:45:30;;;;;;;16.50;9.45;;;17.90;42.60;;;;;;5019560;28;20559;-85
2021/03/30 09:47:58;;;;;;;12.75;7.75;;;17.90;42.50;;;;;;5011673;28;20470;-85
2021/03/30 09:50:25;;;;;;;12.70;8.00;;;18.00;42.90;;;;;;5009111;28;20018;-85
2021/03/30 09:52:51;;;;;;;14.65;8.70;;;18.10;42.40;;;;;;5015426;28;20026;-85
2021/03/30 09:55:34;;;;;;;13.68;7.95;;;18.20;42.20;;;;;;5006998;28;20473;-86
2021/03/30 09:58:15;;;;;;;;;;;18.30;42.10;;;;;;5010491;28;20026;-85
2021/03/30 10:00:47;;;;;;;11.18;5.32;;;18.30;42.20;;;;;;5004015;28;19913;-85
2021/03/30 10:03:14;;;;;;;13.95;8.98;;;18.40;42.60;;;;;;5009411;28;20091;-85
2021/03/30 10:05:41;;;;;;;14.65;8.68;;;18.50;42.30;;;;;;5011237;28;20041;-86
2021/03/30 10:08:24;;;;;;;21.88;11.10;;;18.60;42.50;;;;;;5016971;28;20396;-86
2021/03/30 10:10:52;;;;;;;18.73;10.85;;;18.70;42.10;;;;;;5010809;28;20026;-86
2021/03/30 10:13:39;;;;;;;17.40;9.88;;;18.70;41.80;;;;;;5007520;28;20548;-88
2021/03/30 10:16:12;;;;;;;18.20;10.20;;;18.80;42.00;;;;;;5011135;28;20630;-87
2021/03/30 10:18:43;;;;;;;11.95;7.40;;;18.80;41.30;;;;;;5013038;28;20387;-88
2021/03/30 10:21:12;;;;;;;18.90;10.38;;;18.90;41.30;;;;;;5000031;28;20038;-88
2021/03/30 10:23:43;;;;;;;13.23;8.13;;;19.00;41.10;;;;;;5006900;28;20017;-89
2021/03/30 10:26:25;;;;;;;12.95;8.07;;;19.00;40.80;;;;;;5018078;28;20538;-88
2021/03/30 10:28:56;;;;;;;12.88;7.20;;;19.10;40.90;;;;;;5013108;28;20044;-88
2021/03/30 10:31:43;;;;;;;9.82;5.55;;;19.30;40.90;;;;;;5011379;28;20393;-86
2021/03/30 10:34:31;;;;;;;6.65;3.92;;;19.30;39.80;;;;;;5012170;28;20505;-87
2021/03/30 10:37:05;;;;;;;9.07;5.45;;;19.40;39.30;;;;;;5013518;28;20036;-87
2021/03/30 10:39:33;;;;;;;15.60;7.97;;;19.40;38.30;;;;;;5001140;28;20030;-86
2021/03/30 10:42:09;;;;;;;12.05;6.53;;;19.50;38.10;;;;;;5006283;28;20026;-86
2021/03/30 10:44:45;;;;;;;8.10;4.75;;;19.50;38.10;;;;;;5004868;28;20030;-88
2021/03/30 10:47:28;;;;;;;8.70;5.30;;;19.60;38.00;;;;;;5009515;28;20447;-87
2021/03/30 10:49:54;;;;;;;6.88;4.18;;;19.70;37.50;;;;;;5010559;28;20082;-87
2021/03/30 10:52:24;;;;;;;7.38;4.55;;;19.70;37.60;;;;;;5003292;28;20025;-87
2021/03/30 10:54:52;;;;;;;10.55;6.30;;;19.80;37.40;;;;;;5014836;28;20053;-87
2021/03/30 10:57:20;;;;;;;7.95;4.38;;;19.80;34.90;;;;;;5008441;28;20029;-85
2021/03/30 10:59:46;;;;;;;8.70;4.47;;;19.80;35.40;;;;;;5002207;28;20044;-85
2021/03/30 11:02:13;;;;;;;9.85;6.05;;;19.80;35.70;;;;;;5009728;28;20556;-84
2021/03/30 11:04:40;;;;;;;9.90;5.65;;;19.90;34.90;;;;;;5011112;28;20022;-84
2021/03/30 11:07:08;;;;;;;16.70;10.07;;;19.90;35.10;;;;;;5012178;28;20078;-84
2021/03/30 11:09:35;;;;;;;13.48;8.68;;;20.00;35.10;;;;;;5017352;28;20116;-86
2021/03/30 11:12:00;;;;;;;11.50;6.88;;;20.00;35.20;;;;;;5015908;28;20088;-85
2021/03/30 11:14:26;;;;;;;12.32;6.85;;;20.10;35.50;;;;;;5007286;28;20025;-86
2021/03/30 11:16:52;;;;;;;13.52;8.25;;;20.10;35.30;;;;;;5013626;28;20095;-85
2021/03/30 11:19:18;;;;;;;10.95;6.00;;;20.30;34.60;;;;;;5010369;28;20057;-86
2021/03/30 11:21:44;;;;;;;10.35;5.55;;;20.30;34.40;;;;;;5008466;28;20014;-84
2021/03/30 11:24:15;;;;;;;11.20;6.90;;;20.40;34.60;;;;;;5008638;28;20026;-88
2021/03/30 11:26:43;;;;;;;14.50;8.38;;;20.50;34.50;;;;;;5005795;28;20026;-88
2021/03/30 11:29:14;;;;;;;13.65;8.50;;;20.50;33.50;;;;;;5007712;28;20029;-88
2021/03/30 11:34:21;;;;;;;12.90;7.40;;;20.70;34.20;;;;;;5008997;28;20053;-87
2021/03/30 11:36:48;;;;;;;12.23;7.30;;;20.80;34.70;;;;;;5003956;28;20050;-87
2021/03/30 11:39:14;;;;;;;10.02;5.95;;;21.00;34.50;;;;;;5007021;28;20030;-88
2021/03/30 11:41:41;;;;;;;12.68;7.13;;;21.10;34.50;;;;;;5004295;28;20021;-89
2021/03/30 11:44:07;;;;;;;10.73;6.57;;;21.20;34.10;;;;;;5008728;28;20033;-88
2021/03/30 11:46:32;;;;;;;11.85;7.43;;;21.30;34.40;;;;;;5006445;28;20022;-87
2021/03/30 11:48:58;;;;;;;9.93;6.20;;;21.30;34.30;;;;;;5007183;28;20042;-87
2021/03/30 11:51:23;;;;;;;11.68;7.50;;;21.40;34.30;;;;;;5004550;28;20484;-87
2021/03/30 11:53:49;;;;;;;12.82;7.72;;;21.50;34.20;;;;;;5007294;28;20026;-89
2021/03/30 11:56:15;;;;;;;12.75;7.95;;;21.50;33.90;;;;;;5005673;28;20084;-88
2021/03/30 11:58:41;;;;;;;9.63;6.03;;;21.70;33.80;;;;;;5008059;28;20068;-87
2021/03/30 12:01:07;;;;;;;11.73;6.90;;;21.80;33.90;;;;;;5004069;28;20381;-88
2021/03/30 12:03:38;;;;;;;13.57;8.50;;;21.80;33.80;;;;;;5014569;28;20026;-87
2021/03/30 12:06:07;;;;;;;18.17;10.23;;;21.90;32.40;;;;;;5010642;28;20022;-87
2021/03/30 12:08:34;;;;;;;16.48;10.02;;;21.70;31.90;;;;;;5014497;28;20033;-87
2021/03/30 12:11:00;;;;;;;13.40;7.90;;;21.70;32.60;;;;;;5011236;28;20068;-86
2021/03/30 12:13:25;;;;;;;15.57;8.23;;;21.70;32.90;;;;;;5012512;28;20716;-88
2021/03/30 12:15:51;;;;;;;12.32;6.97;;;21.70;30.50;;;;;;5015355;28;20037;-87
2021/03/30 12:18:17;;;;;;;12.00;6.60;;;21.80;30.00;;;;;;5015885;28;20044;-88
2021/03/30 12:20:42;;;;;;;13.35;7.90;;;21.80;27.50;;;;;;5014952;28;20027;-89
2021/03/30 12:23:08;;;;;;;11.23;6.22;;;21.80;28.30;;;;;;5019695;28;20010;-90
2021/03/30 12:25:33;;;;;;;12.63;8.02;;;21.90;29.00;;;;;;5023166;28;20039;-90
2021/03/30 12:27:59;;;;;;;12.77;7.57;;;21.90;29.40;;;;;;5020489;28;20058;-90
2021/03/30 12:30:24;;;;;;;16.95;9.20;;;22.10;29.70;;;;;;5017739;28;20042;-88
2021/03/30 12:32:50;;;;;;;16.67;10.00;;;22.10;29.70;;;;;;5021327;28;20392;-90
2021/03/30 12:35:16;;;;;;;13.35;7.97;;;22.20;29.60;;;;;;5020839;28;20026;-88
2021/03/30 12:37:41;;;;;;;15.25;8.23;;;22.30;29.90;;;;;;5029952;28;20060;-88
2021/03/30 12:40:08;;;;;;;21.65;12.55;;;22.60;30.00;;;;;;5017424;28;20030;-88
2021/03/30 12:42:34;;;;;;;15.73;9.93;;;22.50;30.80;;;;;;5018127;28;20064;-87
2021/03/30 12:45:00;;;;;;;19.77;11.68;;;22.50;32.10;;;;;;5019991;28;20042;-89
2021/03/30 12:47:25;;;;;;;16.45;9.80;;;22.50;31.50;;;;;;5023777;28;20045;-88
2021/03/30 12:49:51;;;;;;;22.67;13.25;;;22.50;31.90;;;;;;5017846;28;20056;-88
2021/03/30 12:52:17;;;;;;;16.63;10.18;;;22.50;31.30;;;;;;5022404;28;20026;-85
2021/03/30 12:54:42;;;;;;;20.73;10.98;;;22.50;31.90;;;;;;5014263;28;20022;-87
2021/03/30 12:57:08;;;;;;;14.02;8.60;;;22.50;32.30;;;;;;5008451;28;20618;-88
2021/03/30 12:59:34;;;;;;;21.08;11.85;;;22.50;32.90;;;;;;5009294;28;20017;-86